Saturday, August 1, 2015, 10:14 PM EDT

KMDT, Harrisburg International Airport

Location: Middletown, PA, United States Lat: 40.2
Local Time: 10:14 PM EDT ( 2:14 GMT) Lon: -76.767
Time Zone: US/Eastern Elev: 308 ft

Show me the last for .
Show Decoded

2015-08-01 21:56 METAR KMDT 020156Z 32004KT 10SM BKN110 25/16 A2989 =
2015-08-01 20:56 METAR KMDT 020056Z 31003KT 10SM SCT110 24/16 A2987 RMK AO2 SLP112 T02390161 =
2015-08-01 19:56 METAR KMDT 012356Z 28003KT 10SM SCT100 27/16 A2985 RMK AO2 SLP105 T02670156
                 10311 20267 53006 =
2015-08-01 18:56 METAR KMDT 012256Z 29007KT 10SM SCT100 29/14 A2983 =
2015-08-01 17:56 METAR KMDT 012156Z 28007KT 10SM BKN100 28/14 A2983 RMK AO2 SLP100 T02830144 =
2015-08-01 16:56 METAR KMDT 012056Z 27009KT 10SM BKN100 29/13 A2983 =
2015-08-01 15:56 METAR KMDT 011956Z 25009KT 220V280 10SM SCT090 31/12 A2983 RMK AO2 SLP098
                 T03060122 =
2015-08-01 14:56 METAR KMDT 011856Z 28011G16KT 10SM SCT090 31/12 A2984 RMK AO2 SLP101 T03110122 =
2015-08-01 13:56 METAR KMDT 011756Z 31009KT 10SM SCT070 SCT250 31/12 A2985 =
2015-08-01 12:56 METAR KMDT 011656Z 29011G18KT 10SM SCT070 SCT250 30/12 A2986 RMK AO2 SLP110
                 T03000117 =
2015-08-01 11:56 METAR KMDT 011556Z 29009KT 10SM FEW065 SCT150 29/13 A2987 RMK AO2 SLP111
                 T02940133 =
2015-08-01 10:56 METAR KMDT 011456Z 29010KT 10SM FEW050 FEW150 SCT250 28/14 A2986 RMK AO2 SLP108
                 T02830144 51002 =
2015-08-01 09:56 METAR KMDT 011356Z 29007KT 10SM FEW100 SCT250 27/17 A2986 =
2015-08-01 08:56 METAR KMDT 011256Z 00000KT 10SM FEW110 SCT250 26/17 A2986 RMK AO2 SLP109
                 T02560172 =
2015-08-01 07:56 METAR KMDT 011156Z 00000KT 10SM SCT100 BKN120 23/17 A2985 RMK AO2 SLP106
                 T02330172 10244 20194 51009 =
2015-08-01 06:56 METAR KMDT 011056Z 00000KT 10SM BKN100 22/17 A2985 =
2015-08-01 05:56 METAR KMDT 010956Z 00000KT 10SM SCT100 19/17 A2983 RMK AO2 SLP099 T01940167 =
2015-08-01 04:56 METAR KMDT 010856Z 00000KT 10SM FEW070 FEW110 21/17 A2982 RMK AO2 SLP096
                 T02110167 56008 =
2015-08-01 03:56 METAR KMDT 010756Z 15005KT 10SM FEW060 22/17 A2983 RMK AO2 SLP098 T02170172 =
2015-08-01 02:56 METAR KMDT 010656Z 28005KT 10SM CLR 24/16 A2984 =
2015-08-01 01:56 METAR KMDT 010556Z 24006KT 10SM CLR 24/16 A2985 =
2015-08-01 00:56 METAR KMDT 010456Z 00000KT 10SM FEW075 22/18 A2985 RMK AO2 SLP106 T02170178
                 403170189 =
2015-07-31 23:56 METAR KMDT 010356Z 35003KT 10SM FEW100 24/16 A2986 =
2015-07-31 22:56 METAR KMDT 010256Z 34004KT 10SM FEW075 26/16 A2985 =

Support USWX by starting your Amazon purchase here.